Time;durP1;ratioP1;P1;durP2;ratioP2;P2;SDS_P1;SDS_P2;PMS_P1;PMS_P2;Temp;Humidity;BMP_temperature;BMP_pressure;BME280_temperature;BME280_humidity;BME280_pressure;Samples;Min_cycle;Max_cycle;Signal;HPM_P1;HPM_P2
2023/02/09 06:49:59;;;;;;;33.75;14.40;;;;;;;;;;5076872;27;1651764;-82
2023/02/09 06:52:25;;;;;;;29.75;13.48;;;;;;;;;;5126168;28;20024;-87
2023/02/09 06:54:51;;;;;;;33.15;14.95;;;;;;;;;;5106550;28;20020;-82
2023/02/09 06:57:17;;;;;;;29.40;13.30;;;;;;;;;;5125471;28;20038;-83
2023/02/09 06:59:43;;;;;;;26.23;12.63;;;;;;;;;;5122664;28;20036;-82
2023/02/09 07:02:10;;;;;;;31.15;13.90;;;;;;;;;;5107285;28;20035;-83
2023/02/09 07:04:36;;;;;;;27.55;12.70;;;;;;;;;;5127308;28;20350;-84
2023/02/09 07:07:02;;;;;;;26.33;12.07;;;;;;;;;;5128459;28;20080;-84
2023/02/09 07:09:28;;;;;;;29.85;13.02;;;;;;;;;;5110201;28;20034;-84
2023/02/09 07:11:54;;;;;;;29.15;12.98;;;;;;;;;;5129704;28;20019;-86
2023/02/09 07:14:20;;;;;;;30.17;13.27;;;;;;;;;;5108801;28;20005;-85
2023/02/09 07:16:46;;;;;;;33.50;15.00;;;;;;;;;;5104198;28;20032;-81
2023/02/09 07:19:12;;;;;;;34.77;15.20;;;;;;;;;;5114907;28;20030;-82
2023/02/09 07:21:38;;;;;;;29.53;12.90;;;;;;;;;;5104356;28;20035;-82
2023/02/09 07:24:05;;;;;;;28.30;13.73;;;;;;;;;;5104148;28;20534;-85
2023/02/09 07:26:31;;;;;;;29.97;14.50;;;;;;;;;;5114998;28;20030;-82
2023/02/09 07:28:58;;;;;;;39.93;16.27;;;;;;;;;;5103977;28;20044;-87
2023/02/09 07:31:25;;;;;;;32.37;16.40;;;;;;;;;;5106219;28;20092;-82
2023/02/09 07:33:52;;;;;;;30.43;14.80;;;;;;;;;;5118501;28;20023;-82
2023/02/09 07:36:19;;;;;;;35.33;17.03;;;-2.50;99.90;;;;;;5107565;28;20023;-83
2023/02/09 07:38:45;;;;;;;33.97;16.23;;;;;;;;;;5105996;28;20046;-82
2023/02/09 07:41:16;;;;;;;35.53;16.83;;;-2.60;99.90;;;;;;5106233;28;20031;-82
2023/02/09 07:43:43;;;;;;;40.30;16.90;;;;;;;;;;5120162;28;20556;-83
2023/02/09 07:46:09;;;;;;;40.07;16.47;;;;;;;;;;5118796;28;20123;-85
2023/02/09 07:48:35;;;;;;;33.10;16.70;;;;;;;;;;5105185;28;20468;-83
2023/02/09 07:51:02;;;;;;;33.63;16.50;;;;;;;;;;5122863;28;20020;-82
2023/02/09 07:53:29;;;;;;;36.00;18.17;;;-2.50;99.90;;;;;;5108968;28;20055;-80
2023/02/09 07:55:55;;;;;;;32.93;16.17;;;;;;;;;;5125082;28;20087;-84
2023/02/09 07:58:21;;;;;;;35.10;17.13;;;;;;;;;;5128915;28;20083;-83
2023/02/09 08:00:49;;;;;;;29.67;16.03;;;-2.50;99.90;;;;;;5116254;28;20012;-83
2023/02/09 08:03:17;;;;;;;31.83;17.00;;;-2.40;99.90;;;;;;5097128;28;20055;-84
2023/02/09 08:06:09;;;;;;;34.23;17.57;;;0.00;99.90;;;;;;5096998;28;20044;-83
2023/02/09 08:08:36;;;;;;;32.97;16.73;;;;;;;;;;5105192;28;20032;-81
2023/02/09 08:11:03;;;;;;;32.87;16.90;;;;;;;;;;5087189;28;20481;-82
2023/02/09 08:13:32;;;;;;;37.00;16.73;;;-2.40;99.90;;;;;;5103316;28;20032;-84
2023/02/09 08:16:03;;;;;;;34.67;17.23;;;-2.40;99.90;;;;;;5090558;28;20020;-85
2023/02/09 08:18:40;;;;;;;40.05;16.80;;;-2.30;99.90;;;;;;5087558;28;20143;-84
2023/02/09 08:21:09;;;;;;;33.47;17.93;;;-2.30;99.90;;;;;;5094586;28;20026;-84
2023/02/09 08:23:35;;;;;;;34.73;17.03;;;0.50;99.90;;;;;;5088539;28;20055;-83
2023/02/09 08:26:06;;;;;;;31.60;16.63;;;0.10;99.90;;;;;;5087736;28;20027;-80
2023/02/09 08:28:33;;;;;;;33.33;17.33;;;;;;;;;;5084215;28;20032;-79
2023/02/09 08:30:59;;;;;;;32.67;15.97;;;;;;;;;;5079777;28;20123;-80
2023/02/09 08:33:26;;;;;;;29.47;15.40;;;-2.00;99.90;;;;;;5100466;28;20032;-84
2023/02/09 08:35:52;;;;;;;33.07;15.70;;;;;;;;;;5067111;28;20033;-83
2023/02/09 08:38:18;;;;;;;48.92;18.35;;;-1.80;99.90;;;;;;5088777;28;20473;-81
2023/02/09 08:40:44;;;;;;;32.03;15.93;;;;;;;;;;5104208;28;20060;-82
2023/02/09 08:43:12;;;;;;;40.03;16.67;;;-1.60;99.90;;;;;;5102418;28;20037;-85
2023/02/09 08:45:39;;;;;;;35.27;17.23;;;-1.50;99.90;;;;;;5094402;28;20032;-83
2023/02/09 08:48:08;;;;;;;32.40;17.17;;;;;;;;;;5090607;28;20032;-82
2023/02/09 08:50:34;;;;;;;38.28;16.75;;;;;;;;;;5107942;28;20020;-84
2023/02/09 08:53:01;;;;;;;30.48;16.55;;;;;;;;;;5094271;28;20020;-82
2023/02/09 08:55:28;;;;;;;37.88;17.25;;;;;;;;;;5107421;28;20012;-82
2023/02/09 08:57:54;;;;;;;35.85;18.00;;;;;;;;;;5105855;28;20020;-83
2023/02/09 09:00:20;;;;;;;32.63;16.58;;;;;;;;;;5087875;28;20068;-82
2023/02/09 09:02:48;;;;;;;34.35;17.23;;;;;;;;;;5101190;28;20026;-82
2023/02/09 09:05:14;;;;;;;39.15;17.73;;;;;;;;;;5094029;28;20028;-81
2023/02/09 09:07:41;;;;;;;34.25;17.25;;;;;;;;;;5088303;28;20090;-83
2023/02/09 09:10:07;;;;;;;33.58;16.38;;;-0.70;99.90;;;;;;5097751;28;20055;-80
2023/02/09 09:12:34;;;;;;;37.20;16.73;;;;;;;;;;5083267;28;20503;-81
2023/02/09 09:15:00;;;;;;;31.05;15.75;;;;;;;;;;5081557;28;20048;-80
2023/02/09 09:17:26;;;;;;;34.50;16.77;;;;;;;;;;5101237;28;20028;-83
2023/02/09 09:19:54;;;;;;;35.53;16.85;;;;;;;;;;5084128;28;20028;-83
2023/02/09 09:22:21;;;;;;;38.40;16.52;;;;;;;;;;5083899;28;20027;-82
2023/02/09 09:24:47;;;;;;;33.60;15.27;;;;;;;;;;5094095;28;20027;-83
2023/02/09 09:27:15;;;;;;;30.33;15.00;;;;;;;;;;5086108;28;20027;-84
2023/02/09 09:29:44;;;;;;;32.83;14.80;;;;;;;;;;5087019;28;20028;-83
2023/02/09 09:32:14;;;;;;;31.20;15.15;;;-0.20;99.90;;;;;;5083655;28;20023;-80
2023/02/09 09:34:40;;;;;;;34.80;16.70;;;;;;;;;;5099144;28;20030;-82
2023/02/09 09:37:06;;;;;;;29.20;14.93;;;;;;;;;;5081830;28;20028;-80
2023/02/09 09:39:32;;;;;;;32.78;15.98;;;;;;;;;;5099752;28;20032;-82
2023/02/09 09:41:59;;;;;;;32.33;15.70;;;0.60;99.90;;;;;;5077970;28;20035;-84
2023/02/09 09:44:37;;;;;;;33.00;16.05;;;;;;;;;;5073846;28;20100;-83
2023/02/09 09:47:10;;;;;;;32.33;15.98;;;1.00;99.90;;;;;;5096160;28;20087;-83
2023/02/09 09:49:37;;;;;;;29.25;14.70;;;;;;;;;;5077372;28;20032;-82
2023/02/09 09:52:06;;;;;;;28.70;14.88;;;;;;;;;;5097869;28;20031;-84
2023/02/09 09:54:33;;;;;;;32.28;16.00;;;;;;;;;;5102473;28;20024;-87
2023/02/09 09:56:59;;;;;;;28.05;14.38;;;;;;;;;;5077601;28;20078;-82
2023/02/09 09:59:28;;;;;;;29.65;14.73;;;;;;;;;;5083076;28;20050;-84
2023/02/09 10:01:56;;;;;;;29.75;15.15;;;1.10;99.90;;;;;;5078079;28;20056;-83
2023/02/09 10:04:22;;;;;;;31.42;15.40;;;;;;;;;;5083633;28;20061;-83
2023/02/09 10:07:03;;;;;;;31.25;15.68;;;1.30;99.90;;;;;;5084610;28;20028;-84
2023/02/09 10:09:43;;;;;;;34.63;16.83;;;1.50;99.90;;;;;;5099505;28;20063;-81
2023/02/09 10:12:38;;;;;;;39.50;16.03;;;1.80;99.90;;;;;;5094986;28;20114;-82
2023/02/09 10:15:17;;;;;;;26.75;14.40;;;;;;;;;;5079927;28;20274;-83
2023/02/09 10:17:46;;;;;;;31.70;15.27;;;;;;;;;;5081199;28;20378;-85
2023/02/09 10:20:13;;;;;;;33.85;16.42;;;;;;;;;;5075963;28;20042;-82
2023/02/09 10:22:39;;;;;;;30.55;16.13;;;;;;;;;;5088254;28;20119;-83
2023/02/09 10:25:36;;;;;;;31.20;16.83;;;1.90;99.90;;;;;;5074357;28;20055;-85
2023/02/09 10:28:05;;;;;;;32.20;16.73;;;;;;;;;;5086098;28;20079;-83
2023/02/09 10:30:31;;;;;;;34.53;16.55;;;1.80;99.90;;;;;;5092420;28;20060;-81
2023/02/09 10:32:59;;;;;;;35.60;17.83;;;1.80;99.90;;;;;;5074760;28;20024;-84
2023/02/09 10:35:28;;;;;;;34.53;16.35;;;2.00;99.90;;;;;;5075319;28;20028;-83
2023/02/09 10:38:00;;;;;;;30.33;15.80;;;2.10;99.90;;;;;;5067954;28;20028;-82
2023/02/09 10:40:29;;;;;;;34.28;16.13;;;2.20;99.90;;;;;;5066113;28;20063;-81
2023/02/09 10:42:58;;;;;;;31.67;15.43;;;2.10;99.90;;;;;;5081335;28;20036;-83
2023/02/09 10:45:35;;;;;;;30.95;15.55;;;2.20;99.90;;;;;;5070660;28;20405;-81
2023/02/09 10:48:15;;;;;;;29.15;14.98;;;2.20;99.90;;;;;;5079870;28;20047;-87
2023/02/09 10:50:59;;;;;;;30.13;15.60;;;2.20;99.90;;;;;;5089730;28;20032;-83
2023/02/09 10:53:47;;;;;;;32.20;16.30;;;2.50;99.90;;;;;;5068609;28;20036;-84
2023/02/09 10:56:18;;;;;;;30.20;15.20;;;3.20;99.90;;;;;;5072373;28;20464;-82
2023/02/09 10:59:02;;;;;;;30.05;16.50;;;2.60;99.90;;;;;;5068048;28;20059;-84
2023/02/09 11:01:33;;;;;;;34.00;16.02;;;3.00;99.90;;;;;;5073943;28;20036;-84
2023/02/09 11:03:59;;;;;;;28.42;15.55;;;;;;;;;;5090514;28;20036;-82
2023/02/09 11:06:25;;;;;;;33.28;16.13;;;3.40;99.90;;;;;;5068925;28;20039;-82
2023/02/09 11:09:00;;;;;;;34.92;18.15;;;3.60;99.90;;;;;;5067935;28;20033;-81
2023/02/09 11:11:32;;;;;;;29.95;15.68;;;3.60;99.90;;;;;;5073006;28;20051;-85
2023/02/09 11:13:59;;;;;;;31.25;16.73;;;3.60;99.90;;;;;;5067074;28;20028;-83
2023/02/09 11:16:31;;;;;;;33.40;15.95;;;;;;;;;;5067705;28;20028;-81
2023/02/09 11:19:12;;;;;;;28.73;15.80;;;3.80;99.90;;;;;;5071860;28;20032;-84
2023/02/09 11:21:58;;;;;;;;;;;3.90;99.90;;;;;;5089613;28;20051;-84
2023/02/09 11:24:58;;;;;;;31.52;14.70;;;4.20;99.90;;;;;;5084608;28;19912;-85
2023/02/09 11:27:52;;;;;;;26.17;13.95;;;;;;;;;;5089761;28;20028;-85
2023/02/09 11:30:40;;;;;;;27.05;13.82;;;4.70;99.90;;;;;;5085999;28;20413;-84
2023/02/09 11:33:29;;;;;;;27.70;14.20;;;5.10;99.90;;;;;;5080435;28;20016;-89
2023/02/09 11:36:04;;;;;;;27.40;14.80;;;;;;;;;;5079430;28;20035;-81
2023/02/09 11:38:47;;;;;;;32.35;14.57;;;5.20;99.90;;;;;;5082180;28;20024;-83
2023/02/09 11:44:05;;;;;;;25.58;13.35;;;4.70;99.90;;;;;;5092394;28;20113;-83
2023/02/09 11:46:32;;;;;;;28.65;14.75;;;4.60;99.90;;;;;;5081608;28;20043;-86
2023/02/09 11:49:12;;;;;;;30.73;15.50;;;4.40;99.90;;;;;;5096622;28;20028;-80
2023/02/09 11:51:42;;;;;;;30.10;15.25;;;4.30;99.90;;;;;;5076755;28;20032;-83
2023/02/09 11:54:21;;;;;;;30.20;16.05;;;4.20;99.90;;;;;;5078399;28;20111;-81
2023/02/09 11:56:55;;;;;;;26.38;13.95;;;4.20;99.90;;;;;;5097042;28;20039;-84
2023/02/09 11:59:23;;;;;;;27.65;13.82;;;;;;;;;;5096895;28;20024;-80
2023/02/09 12:01:53;;;;;;;28.75;13.90;;;4.10;99.90;;;;;;5082105;28;20040;-82
2023/02/09 12:04:31;;;;;;;30.50;13.15;;;4.00;99.90;;;;;;5079104;28;20078;-83
2023/02/09 12:07:13;;;;;;;25.70;13.35;;;4.00;99.90;;;;;;5077256;28;20090;-82
2023/02/09 12:09:39;;;;;;;22.10;12.82;;;;;;;;;;5080337;28;20110;-80
2023/02/09 12:12:30;;;;;;;32.10;13.80;;;4.10;99.90;;;;;;5090282;28;20488;-85
2023/02/09 12:15:07;;;;;;;;;;;4.20;99.90;;;;;;5095564;28;20054;-80
2023/02/09 12:20:37;;;;;;;26.92;13.95;;;;;;;;;;5098246;28;20081;-82
2023/02/09 12:23:19;;;;;;;28.63;13.05;;;4.30;99.90;;;;;;5084616;28;20024;-83
2023/02/09 12:25:56;;;;;;;25.48;12.65;;;;;;;;;;5071347;28;20118;-84
2023/02/09 12:28:41;;;;;;;24.58;12.45;;;;;;;;;;5100314;28;20031;-82
2023/02/09 12:31:19;;;;;;;26.58;13.13;;;4.40;99.70;;;;;;5094650;28;20020;-81
2023/02/09 12:33:46;;;;;;;25.55;13.38;;;;;;;;;;5104184;28;20401;-82
2023/02/09 12:39:38;;;;;;;27.05;12.65;;;;;;;;;;5110474;28;20035;-84
2023/02/09 12:42:30;;;;;;;27.38;12.93;;;;;;;;;;5110300;28;20043;-81
2023/02/09 12:46:00;;;;;;;25.20;12.48;;;5.40;97.90;;;;;;5078469;28;20028;-84
2023/02/09 13:02:15;;;;;;;25.73;13.25;;;5.40;97.00;;;;;;5058542;28;20055;-80
2023/02/09 13:05:19;;;;;;;28.40;13.23;;;5.60;96.80;;;;;;5057966;28;20048;-83
2023/02/09 13:08:24;;;;;;;28.67;13.02;;;5.90;96.50;;;;;;4965922;28;20264;-83
2023/02/09 13:11:28;;;;;;;22.05;12.00;;;;;;;;;;5061372;28;20048;-82
2023/02/09 13:14:44;;;;;;;25.67;13.35;;;6.30;94.30;;;;;;4988223;28;20042;-84
2023/02/09 13:17:51;;;;;;;21.38;11.95;;;6.20;94.30;;;;;;4988918;28;20033;-83
2023/02/09 13:24:25;;;;;;;24.35;11.75;;;6.10;94.10;;;;;;5058858;28;20111;-83
2023/02/09 13:27:02;;;;;;;25.25;11.48;;;5.30;93.90;;;;;;5045691;28;20033;-83
2023/02/09 13:30:15;;;;;;;25.38;12.93;;;6.10;94.10;;;;;;5064336;28;20091;-83
2023/02/09 13:37:27;;;;;;;27.13;11.40;;;6.30;93.30;;;;;;5020254;28;20092;-83
2023/02/09 13:40:34;;;;;;;26.38;12.23;;;6.20;92.60;;;;;;5015010;28;20127;-81
2023/02/09 13:43:16;;;;;;;23.60;12.07;;;6.00;93.10;;;;;;4994585;28;20162;-83
2023/02/09 13:45:49;;;;;;;26.02;11.82;;;5.80;93.60;;;;;;5001299;28;20044;-82
2023/02/09 13:48:34;;;;;;;27.52;13.20;;;8.30;94.30;;;;;;5056290;28;20025;-80
2023/02/09 13:51:11;;;;;;;26.05;12.35;;;5.70;94.10;;;;;;5039051;28;20071;-83
2023/02/09 13:53:37;;;;;;;23.02;12.10;;;6.80;94.70;;;;;;5049518;28;20033;-81
2023/02/09 13:56:14;;;;;;;24.83;12.90;;;6.10;95.30;;;;;;5036006;28;20030;-84
2023/02/09 13:58:40;;;;;;;26.77;13.45;;;;;;;;;;5051083;28;20096;-81
2023/02/09 14:01:12;;;;;;;23.60;12.10;;;5.60;94.50;;;;;;5030053;28;20037;-83
2023/02/09 14:03:46;;;;;;;21.77;11.82;;;6.60;94.50;;;;;;5033214;28;20075;-82
2023/02/09 14:06:24;;;;;;;24.85;12.43;;;5.30;94.00;;;;;;5030247;28;20469;-81
2023/02/09 14:08:51;;;;;;;23.70;11.70;;;5.80;93.60;;;;;;5050887;28;20036;-83
2023/02/09 14:11:35;;;;;;;23.98;11.75;;;5.60;93.50;;;;;;5035638;28;20025;-82
2023/02/09 14:14:11;;;;;;;23.50;12.25;;;5.60;93.70;;;;;;5030665;28;20547;-83
2023/02/09 14:16:37;;;;;;;23.00;12.05;;;;;;;;;;5032650;28;20036;-82
2023/02/09 14:19:24;;;;;;;22.30;11.57;;;5.60;92.50;;;;;;5032714;28;20048;-82
2023/02/09 14:21:51;;;;;;;20.60;10.80;;;;;;;;;;5031785;28;20041;-83
2023/02/09 14:24:20;;;;;;;20.55;10.38;;;5.50;92.90;;;;;;5048296;28;20025;-81
2023/02/09 14:27:19;;;;;;;21.23;11.07;;;6.20;93.70;;;;;;5034206;28;20033;-83
2023/02/09 14:29:47;;;;;;;23.50;12.27;;;5.50;93.50;;;;;;5051176;28;20140;-81
2023/02/09 14:32:36;;;;;;;24.00;12.07;;;5.50;93.70;;;;;;5055358;28;20028;-82
2023/02/09 14:35:14;;;;;;;23.35;10.95;;;5.50;93.70;;;;;;5050997;28;20035;-83
2023/02/09 14:37:41;;;;;;;24.27;11.48;;;5.40;93.30;;;;;;5045061;28;20033;-81
2023/02/09 14:40:07;;;;;;;25.13;12.02;;;;;;;;;;5038699;28;20033;-82
2023/02/09 14:42:38;;;;;;;21.20;10.77;;;5.50;93.30;;;;;;5058896;28;20060;-83
2023/02/09 14:45:13;;;;;;;24.58;11.73;;;5.50;93.80;;;;;;5027195;28;20121;-82
2023/02/09 14:47:41;;;;;;;21.45;10.35;;;5.50;92.70;;;;;;5035773;28;20119;-82
2023/02/09 14:50:12;;;;;;;20.67;11.50;;;5.50;92.20;;;;;;5034605;28;20063;-82
2023/02/09 14:52:38;;;;;;;19.23;10.93;;;6.00;92.50;;;;;;5029599;28;20040;-81
2023/02/09 14:55:13;;;;;;;20.90;11.20;;;5.40;92.50;;;;;;5050811;28;20052;-82
2023/02/09 14:57:39;;;;;;;20.88;10.85;;;;;;;;;;5059032;28;20040;-82
2023/02/09 15:00:17;;;;;;;25.92;11.68;;;5.40;92.80;;;;;;5029924;28;20048;-82
2023/02/09 15:02:47;;;;;;;22.55;10.38;;;5.40;93.00;;;;;;5027835;28;20252;-82
2023/02/09 15:05:13;;;;;;;20.83;10.55;;;;;;;;;;5033823;28;20474;-80
2023/02/09 15:07:43;;;;;;;20.98;10.93;;;5.40;92.80;;;;;;5053512;28;20030;-81
2023/02/09 15:10:32;;;;;;;22.35;11.10;;;7.40;93.50;;;;;;5034356;28;20040;-81
2023/02/09 15:13:00;;;;;;;23.13;11.18;;;5.40;93.10;;;;;;5055544;28;20397;-82
2023/02/09 15:15:26;;;;;;;19.98;10.27;;;;;;;;;;5042071;28;20083;-81
2023/02/09 15:17:54;;;;;;;24.80;10.95;;;;;;;;;;5039567;28;20496;-82
2023/02/09 15:20:24;;;;;;;23.92;12.77;;;5.30;93.20;;;;;;5057252;28;20040;-81
2023/02/09 15:22:53;;;;;;;25.38;13.27;;;5.30;93.80;;;;;;5053221;28;20030;-84
2023/02/09 15:25:19;;;;;;;24.65;13.10;;;5.30;93.90;;;;;;5035708;28;20090;-81
2023/02/09 15:27:47;;;;;;;22.60;11.60;;;5.30;94.20;;;;;;5054248;28;20140;-82
2023/02/09 15:50:55;;;;;;;23.25;11.65;;;5.10;94.90;;;;;;4830596;29;20130;-78
2023/02/09 16:27:13;;;;;;;31.25;14.80;;;4.00;98.80;;;;;;5007286;28;20461;-80
2023/02/09 16:43:12;;;;;;;30.38;14.23;;;4.40;99.90;;;;;;4931798;29;20047;-83
2023/02/09 16:45:59;;;;;;;28.73;14.48;;;4.30;99.90;;;;;;4923117;29;20059;-82
2023/02/09 16:56:08;;;;;;;30.55;15.10;;;4.10;99.90;;;;;;4933541;29;20091;-81
2023/02/09 16:59:33;;;;;;;30.58;14.38;;;3.30;99.90;;;;;;4911780;29;20076;-82
2023/02/09 17:16:33;;;;;;;28.02;13.48;;;5.90;99.90;;;;;;4919690;29;20094;-81
2023/02/09 17:19:20;;;;;;;33.40;16.48;;;3.80;99.90;;;;;;4873527;29;20044;-83
2023/02/09 17:21:46;;;;;;;34.85;17.58;;;3.80;99.90;;;;;;4881123;29;20044;-82
2023/02/09 17:24:14;;;;;;;30.63;16.10;;;3.70;99.90;;;;;;4892494;29;20039;-82
2023/02/09 17:26:41;;;;;;;31.15;16.23;;;5.50;99.90;;;;;;4919037;28;20041;-82
2023/02/09 17:29:07;;;;;;;32.00;16.30;;;3.60;99.90;;;;;;4977840;28;20045;-79
2023/02/09 17:31:35;;;;;;;33.47;16.55;;;5.70;99.90;;;;;;5006270;28;20402;-78
2023/02/09 17:34:05;;;;;;;32.22;16.50;;;4.10;99.90;;;;;;4989930;28;20458;-80
2023/02/09 17:36:31;;;;;;;29.33;15.52;;;3.60;99.90;;;;;;4999756;28;20038;-79
2023/02/09 17:38:59;;;;;;;29.23;15.77;;;3.60;99.90;;;;;;4983806;28;20065;-79
2023/02/09 17:41:32;;;;;;;38.90;17.83;;;3.50;99.90;;;;;;5000182;28;20079;-83
2023/02/09 17:44:27;;;;;;;36.75;18.45;;;3.50;99.90;;;;;;4995397;28;20076;-82
2023/02/09 17:46:54;;;;;;;35.47;16.50;;;3.50;99.90;;;;;;4982469;28;20037;-81
2023/02/09 17:49:20;;;;;;;37.38;18.05;;;;;;;;;;4992272;28;20041;-81
2023/02/09 17:51:46;;;;;;;31.15;15.82;;;3.50;99.90;;;;;;5005367;28;20057;-84
2023/02/09 17:54:18;;;;;;;46.95;18.27;;;3.40;99.90;;;;;;4985343;28;20106;-83
2023/02/09 17:56:44;;;;;;;32.58;15.88;;;3.40;99.90;;;;;;4991718;28;20030;-82
2023/02/09 17:59:12;;;;;;;35.03;16.65;;;3.30;99.90;;;;;;5000477;28;20026;-83
2023/02/09 18:01:44;;;;;;;30.13;14.13;;;3.30;99.90;;;;;;4977674;28;20030;-81
2023/02/09 18:04:19;;;;;;;30.10;15.15;;;3.30;99.90;;;;;;5008738;28;20077;-80
2023/02/09 18:06:46;;;;;;;31.55;15.88;;;3.20;99.90;;;;;;4994305;28;20502;-81
2023/02/09 18:09:12;;;;;;;29.77;15.32;;;;;;;;;;4989409;28;20033;-80
2023/02/09 18:11:44;;;;;;;26.50;14.80;;;3.10;99.90;;;;;;5007008;28;20485;-82
2023/02/09 18:14:15;;;;;;;29.50;14.55;;;3.00;99.90;;;;;;4996619;28;20029;-81
2023/02/09 18:16:43;;;;;;;28.00;13.38;;;4.00;99.90;;;;;;4986155;28;20053;-82
2023/02/09 18:19:10;;;;;;;29.98;13.98;;;4.00;99.90;;;;;;4977619;28;20084;-82
2023/02/09 18:21:37;;;;;;;28.35;14.82;;;2.80;99.90;;;;;;4994380;28;20145;-80
2023/02/09 18:24:04;;;;;;;33.30;16.73;;;2.70;99.90;;;;;;4990716;28;20030;-81
2023/02/09 18:26:30;;;;;;;24.00;12.85;;;2.70;99.90;;;;;;5006573;28;20033;-81
2023/02/09 18:28:56;;;;;;;28.48;13.98;;;2.70;99.90;;;;;;4994901;28;20034;-81
2023/02/09 18:31:22;;;;;;;31.13;14.15;;;2.60;99.90;;;;;;4984771;28;20367;-81
2023/02/09 18:33:48;;;;;;;30.10;16.33;;;2.60;99.90;;;;;;4989280;28;20090;-82
2023/02/09 18:36:15;;;;;;;31.58;14.98;;;2.40;99.90;;;;;;4991047;28;20083;-81
2023/02/09 18:38:41;;;;;;;28.63;15.23;;;2.40;99.90;;;;;;4993228;28;20041;-82
2023/02/09 18:41:13;;;;;;;28.85;16.05;;;2.40;99.90;;;;;;4992694;28;20421;-81
2023/02/09 18:43:39;;;;;;;33.72;15.55;;;3.60;99.90;;;;;;4992244;28;20062;-81
2023/02/09 18:46:06;;;;;;;32.30;15.65;;;2.30;99.90;;;;;;4995953;28;20113;-82
2023/02/09 18:48:32;;;;;;;33.55;16.58;;;2.40;99.90;;;;;;4994759;28;20026;-83
2023/02/09 18:50:58;;;;;;;35.72;16.48;;;2.30;99.90;;;;;;4994214;28;20033;-83
2023/02/09 18:53:24;;;;;;;33.00;16.25;;;;;;;;;;4993027;28;20068;-83
2023/02/09 18:55:51;;;;;;;30.67;15.82;;;2.30;99.90;;;;;;5010414;28;20023;-81
2023/02/09 18:58:24;;;;;;;32.17;16.92;;;2.20;99.90;;;;;;5009522;28;20190;-82
2023/02/09 19:00:53;;;;;;;30.40;15.77;;;2.20;99.90;;;;;;5004279;28;20038;-81
2023/02/09 19:03:25;;;;;;;36.38;16.17;;;2.10;99.90;;;;;;5010323;28;20034;-82
2023/02/09 19:05:53;;;;;;;31.48;15.52;;;2.70;99.90;;;;;;5004352;28;20041;-82
2023/02/09 19:08:19;;;;;;;37.40;15.90;;;2.70;99.90;;;;;;5010008;28;20466;-82
2023/02/09 19:10:45;;;;;;;35.35;16.95;;;2.50;99.90;;;;;;4993888;28;20057;-80
2023/02/09 19:13:10;;;;;;;33.83;16.83;;;2.10;99.90;;;;;;4991237;28;20040;-82
2023/02/09 19:15:37;;;;;;;33.38;15.70;;;2.00;99.90;;;;;;4981522;28;20048;-82
2023/02/09 19:18:06;;;;;;;30.38;16.15;;;2.90;99.90;;;;;;5002523;28;20081;-83
2023/02/09 19:20:33;;;;;;;30.60;15.68;;;3.60;99.90;;;;;;4983066;28;20667;-81
2023/02/09 19:22:59;;;;;;;34.97;17.10;;;;;;;;;;4989145;28;20116;-82
2023/02/09 19:25:27;;;;;;;36.67;18.05;;;2.00;99.90;;;;;;4983741;28;20153;-83
2023/02/09 19:27:56;;;;;;;34.13;16.38;;;4.10;99.90;;;;;;4983501;28;20054;-82
2023/02/09 19:30:25;;;;;;;35.40;19.25;;;2.00;99.90;;;;;;4998951;28;20042;-83
2023/02/09 19:32:58;;;;;;;35.78;18.48;;;4.80;99.90;;;;;;5000452;28;20026;-83
2023/02/09 19:35:28;;;;;;;37.88;18.48;;;1.90;99.90;;;;;;4986794;28;20053;-83
2023/02/09 19:37:57;;;;;;;38.92;18.25;;;1.90;99.90;;;;;;4990693;28;20034;-83
2023/02/09 19:40:34;;;;;;;35.95;18.23;;;2.80;99.90;;;;;;4979584;28;20033;-83
2023/02/09 19:43:01;;;;;;;37.78;17.88;;;1.90;99.90;;;;;;5003075;28;20436;-83
2023/02/09 19:45:34;;;;;;;32.67;18.05;;;2.00;99.90;;;;;;5000520;28;20489;-81
2023/02/09 19:48:04;;;;;;;34.58;18.13;;;1.80;99.90;;;;;;4999277;28;20490;-86
2023/02/09 19:50:29;;;;;;;38.95;18.52;;;1.80;99.90;;;;;;4989343;28;20029;-82
2023/02/09 19:52:56;;;;;;;40.85;18.55;;;3.00;99.90;;;;;;5002175;28;20017;-85
2023/02/09 19:55:22;;;;;;;37.03;18.45;;;;;;;;;;4987520;28;20034;-85
2023/02/09 19:57:48;;;;;;;36.97;18.27;;;;;;;;;;4993727;28;20023;-86
2023/02/09 20:00:16;;;;;;;38.70;18.10;;;1.60;99.90;;;;;;4991263;28;20065;-85
2023/02/09 20:02:43;;;;;;;39.97;19.08;;;;;;;;;;4986859;28;20034;-80
2023/02/09 20:05:09;;;;;;;38.55;19.23;;;;;;;;;;5003074;28;20053;-83
2023/02/09 20:07:38;;;;;;;37.45;19.27;;;;;;;;;;4991936;28;20080;-81
2023/02/09 20:10:04;;;;;;;36.92;19.38;;;;;;;;;;4989920;28;20286;-82
2023/02/09 20:12:34;;;;;;;38.22;19.00;;;2.50;99.90;;;;;;5001993;28;20038;-83
2023/02/09 20:15:00;;;;;;;40.00;19.65;;;;;;;;;;4989966;28;20107;-83
2023/02/09 20:17:32;;;;;;;32.78;18.08;;;1.50;99.90;;;;;;4987230;28;20219;-83
2023/02/09 20:20:01;;;;;;;37.22;18.95;;;;;;;;;;5004258;28;20030;-83
2023/02/09 20:22:27;;;;;;;35.22;18.88;;;1.30;99.90;;;;;;5002697;28;20316;-82
2023/02/09 20:24:53;;;;;;;34.50;19.10;;;;;;;;;;5001613;28;20054;-83
2023/02/09 20:27:20;;;;;;;41.20;20.95;;;1.40;99.90;;;;;;5006761;28;20566;-83
2023/02/09 20:29:46;;;;;;;45.72;21.38;;;;;;;;;;5001270;28;20034;-83
2023/02/09 20:32:12;;;;;;;56.92;23.77;;;;;;;;;;4999938;28;20129;-82
2023/02/09 20:34:38;;;;;;;40.05;20.90;;;;;;;;;;5001805;28;20049;-83
2023/02/09 20:37:07;;;;;;;42.58;20.30;;;1.30;99.90;;;;;;4999258;28;20422;-82
2023/02/09 20:39:36;;;;;;;40.08;20.27;;;2.90;99.90;;;;;;5001955;28;20045;-83
2023/02/09 20:47:37;;;;;;;41.00;19.35;;;1.20;99.90;;;;;;4988613;28;20396;-82
2023/02/09 20:50:03;;;;;;;41.28;20.38;;;3.50;99.90;;;;;;5003187;28;20038;-85
2023/02/09 20:52:38;;;;;;;43.00;21.23;;;1.20;99.90;;;;;;4982327;28;20038;-84
2023/02/09 20:55:11;;;;;;;42.00;21.17;;;1.10;99.90;;;;;;4998440;28;20030;-83
2023/02/09 20:57:40;;;;;;;45.40;23.17;;;1.10;99.90;;;;;;4983347;28;20479;-83
2023/02/09 21:00:08;;;;;;;43.22;20.50;;;1.00;99.90;;;;;;5003201;28;20350;-82
2023/02/09 21:02:42;;;;;;;41.15;19.73;;;1.20;99.90;;;;;;4989762;28;20191;-83
2023/02/09 21:05:11;;;;;;;40.42;19.92;;;1.00;99.90;;;;;;4991750;28;20038;-84
2023/02/09 21:07:40;;;;;;;44.65;22.15;;;;;;;;;;4993270;28;20373;-84
2023/02/09 21:10:06;;;;;;;40.95;20.83;;;0.90;99.90;;;;;;5012068;28;20033;-84
2023/02/09 21:12:34;;;;;;;38.13;20.38;;;0.90;99.90;;;;;;4992152;28;20032;-85
2023/02/09 21:15:03;;;;;;;41.95;21.70;;;3.60;99.90;;;;;;4999815;28;20406;-83
2023/02/09 21:17:29;;;;;;;42.83;21.52;;;0.90;99.90;;;;;;4974097;28;20030;-82
2023/02/09 21:19:54;;;;;;;45.28;21.40;;;0.90;99.90;;;;;;4990767;28;20374;-84
2023/02/09 21:22:20;;;;;;;41.47;21.35;;;0.90;99.90;;;;;;5006533;28;20030;-84
2023/02/09 21:24:46;;;;;;;42.50;18.98;;;1.80;99.90;;;;;;5001062;28;20030;-82
2023/02/09 21:27:13;;;;;;;38.08;18.95;;;0.90;99.90;;;;;;4982176;28;20030;-83
2023/02/09 21:29:38;;;;;;;39.42;19.80;;;0.90;99.90;;;;;;4985181;28;20044;-82
2023/02/09 21:32:05;;;;;;;41.00;20.35;;;0.80;99.90;;;;;;5010177;28;20849;-80
2023/02/09 21:34:31;;;;;;;44.72;19.73;;;0.90;99.90;;;;;;4988111;28;20362;-84
2023/02/09 21:36:57;;;;;;;47.30;20.73;;;0.80;99.90;;;;;;4989009;28;20026;-81
2023/02/09 21:39:23;;;;;;;41.60;18.92;;;0.80;99.90;;;;;;4988107;28;20034;-82
2023/02/09 21:44:35;;;;;;;40.58;18.25;;;0.70;99.90;;;;;;5006219;28;20068;-83
2023/02/09 21:47:01;;;;;;;38.65;18.58;;;1.40;99.90;;;;;;5001768;28;20026;-83
2023/02/09 21:49:30;;;;;;;42.58;18.95;;;0.70;99.90;;;;;;4983547;28;20061;-84
2023/02/09 21:51:56;;;;;;;37.70;18.60;;;0.70;99.90;;;;;;4985038;28;20023;-81
2023/02/09 21:54:23;;;;;;;38.33;19.40;;;1.90;99.90;;;;;;4989078;28;20721;-81
2023/02/09 21:56:49;;;;;;;44.40;20.60;;;;;;;;;;4994845;28;20105;-82
2023/02/09 21:59:15;;;;;;;45.08;19.38;;;0.50;99.90;;;;;;4992279;28;20031;-81
2023/02/09 22:01:42;;;;;;;38.92;19.65;;;1.90;99.90;;;;;;4988170;28;20065;-83
2023/02/09 22:04:07;;;;;;;46.85;20.52;;;0.40;99.90;;;;;;4986288;28;20029;-82
2023/02/09 22:06:33;;;;;;;40.90;19.65;;;0.40;99.90;;;;;;4998046;28;20029;-82
2023/02/09 22:09:01;;;;;;;41.15;18.13;;;0.40;99.90;;;;;;4992241;28;20032;-82
2023/02/09 22:11:27;;;;;;;42.60;19.85;;;0.50;99.90;;;;;;4995229;28;20113;-82
2023/02/09 22:13:53;;;;;;;35.63;18.90;;;0.40;99.90;;;;;;4990548;28;20046;-82
2023/02/09 22:16:21;;;;;;;49.97;20.50;;;0.40;99.90;;;;;;4992265;28;20555;-80
2023/02/09 22:18:47;;;;;;;40.40;20.60;;;1.50;99.90;;;;;;4993973;28;20037;-83
2023/02/09 22:21:12;;;;;;;36.25;18.88;;;0.50;99.90;;;;;;4995523;28;20046;-82
2023/02/09 22:23:38;;;;;;;41.15;19.30;;;0.50;99.90;;;;;;5010647;28;20034;-82
2023/02/09 22:26:05;;;;;;;39.72;18.98;;;0.50;99.90;;;;;;4993171;28;20026;-83
2023/02/09 22:28:31;;;;;;;41.63;20.35;;;0.40;99.90;;;;;;4999507;28;20030;-82